Time;durP1;ratioP1;P1;durP2;ratioP2;P2;SDS_P1;SDS_P2;PMS_P1;PMS_P2;Temp;Humidity;BMP_temperature;BMP_pressure;BME280_temperature;BME280_humidity;BME280_pressure;Samples;Min_cycle;Max_cycle;Signal;HPM_P1;HPM_P2
2021/08/31 00:00:19;;;;;;;5.77;4.10;;;16.30;99.90;;;;;;5038774;28;20503;-83
2021/08/31 00:02:48;;;;;;;3.70;3.40;;;16.30;99.90;;;;;;5039718;28;20183;-83
2021/08/31 00:05:14;;;;;;;4.07;3.27;;;16.30;99.90;;;;;;5038590;28;20404;-83
2021/08/31 00:07:40;;;;;;;4.40;4.00;;;16.30;99.90;;;;;;5039814;28;20165;-82
2021/08/31 00:10:07;;;;;;;4.33;3.77;;;16.30;99.90;;;;;;5039541;28;20425;-83
2021/08/31 00:12:33;;;;;;;4.17;3.80;;;16.30;99.90;;;;;;5040100;28;20411;-82
2021/08/31 00:15:01;;;;;;;6.93;3.67;;;16.30;99.90;;;;;;5039408;28;20589;-82
2021/08/31 00:17:26;;;;;;;4.23;3.83;;;16.20;99.90;;;;;;5039125;28;20392;-83
2021/08/31 00:19:52;;;;;;;5.50;3.33;;;16.20;99.90;;;;;;5039528;28;20399;-82
2021/08/31 00:22:18;;;;;;;4.20;3.90;;;16.20;99.90;;;;;;5038917;28;20228;-83
2021/08/31 00:24:44;;;;;;;4.67;4.27;;;16.20;99.90;;;;;;5040697;28;20164;-82
2021/08/31 00:27:09;;;;;;;4.33;3.63;;;16.30;99.90;;;;;;5040289;28;20195;-83
2021/08/31 00:29:35;;;;;;;6.77;3.73;;;16.20;99.90;;;;;;5039797;28;20168;-82
2021/08/31 00:32:02;;;;;;;3.67;3.27;;;16.20;99.90;;;;;;5039666;28;20180;-83
2021/08/31 00:34:27;;;;;;;3.10;2.80;;;16.20;99.90;;;;;;5039083;28;20636;-82
2021/08/31 00:36:53;;;;;;;3.40;3.10;;;16.20;99.90;;;;;;4989122;28;20411;-83
2021/08/31 00:39:19;;;;;;;3.67;3.37;;;16.20;99.90;;;;;;5040336;28;20161;-83
2021/08/31 00:41:47;;;;;;;3.83;3.43;;;16.20;99.90;;;;;;5040178;28;20157;-83
2021/08/31 00:44:27;;;;;;;4.17;3.87;;;16.20;99.90;;;;;;5006803;28;20447;-82
2021/08/31 00:46:55;;;;;;;4.90;3.50;;;16.20;99.90;;;;;;5040123;28;20426;-83
2021/08/31 00:49:21;;;;;;;4.67;3.50;;;16.20;99.90;;;;;;5042563;28;20422;-82
2021/08/31 00:51:48;;;;;;;4.40;3.20;;;16.20;99.90;;;;;;5042989;28;20439;-83
2021/08/31 00:54:16;;;;;;;3.30;3.03;;;16.20;99.90;;;;;;5042460;28;20502;-83
2021/08/31 00:56:45;;;;;;;4.37;3.97;;;16.20;99.90;;;;;;5025207;28;20887;-83
2021/08/31 00:59:11;;;;;;;4.80;4.30;;;16.20;99.90;;;;;;5042549;28;20920;-83
2021/08/31 01:01:36;;;;;;;3.90;3.60;;;16.20;99.90;;;;;;5025307;28;20423;-83
2021/08/31 01:04:02;;;;;;;4.10;3.80;;;16.20;99.90;;;;;;5042542;28;20223;-83
2021/08/31 01:06:31;;;;;;;3.73;3.43;;;16.20;99.90;;;;;;5042276;28;20203;-83
2021/08/31 01:08:59;;;;;;;3.93;3.50;;;16.20;99.90;;;;;;5042183;28;20434;-83
2021/08/31 01:11:26;;;;;;;4.93;3.63;;;16.20;99.90;;;;;;5024980;28;20169;-83
2021/08/31 01:13:53;;;;;;;3.70;3.40;;;16.20;99.90;;;;;;5023100;28;20452;-83
2021/08/31 01:16:18;;;;;;;4.87;4.47;;;16.20;99.90;;;;;;5042770;28;20256;-83
2021/08/31 01:18:44;;;;;;;4.37;3.80;;;16.20;99.90;;;;;;5042842;28;20415;-83
2021/08/31 01:21:11;;;;;;;4.63;4.17;;;16.20;99.90;;;;;;5043114;28;20164;-83
2021/08/31 01:23:38;;;;;;;4.17;3.77;;;16.20;99.90;;;;;;5042500;28;20510;-83
2021/08/31 01:26:04;;;;;;;10.10;4.10;;;16.20;99.90;;;;;;5043006;28;20461;-83
2021/08/31 01:28:33;;;;;;;3.90;3.33;;;16.20;99.90;;;;;;5042869;28;20418;-84
2021/08/31 01:30:59;;;;;;;3.73;3.37;;;16.20;99.90;;;;;;5042565;28;20455;-83
2021/08/31 01:33:28;;;;;;;4.13;3.77;;;16.20;99.90;;;;;;5042002;28;20407;-83
2021/08/31 01:35:55;;;;;;;5.60;3.20;;;16.20;99.90;;;;;;5042877;28;20391;-83
2021/08/31 01:38:21;;;;;;;3.50;3.20;;;16.20;99.90;;;;;;5042422;28;20388;-83
2021/08/31 01:40:51;;;;;;;3.80;3.50;;;16.20;99.90;;;;;;5042721;28;20734;-83
2021/08/31 01:43:23;;;;;;;4.23;3.83;;;16.20;99.90;;;;;;5043044;28;20404;-83
2021/08/31 01:45:49;;;;;;;2.73;2.53;;;16.20;99.90;;;;;;5043041;28;20395;-83
2021/08/31 01:48:15;;;;;;;3.93;3.63;;;16.20;99.90;;;;;;5042884;28;20430;-83
2021/08/31 01:50:41;;;;;;;4.13;3.70;;;16.20;99.90;;;;;;5042323;28;20396;-83
2021/08/31 01:53:07;;;;;;;4.77;3.90;;;16.20;99.90;;;;;;5024430;28;20446;-83
2021/08/31 01:55:33;;;;;;;3.53;3.20;;;16.20;99.90;;;;;;5042736;28;20215;-83
2021/08/31 01:57:59;;;;;;;4.13;3.60;;;16.20;99.90;;;;;;5042738;28;20387;-83
2021/08/31 02:00:25;;;;;;;6.17;4.07;;;16.20;99.90;;;;;;5042043;28;20486;-83
2021/08/31 02:02:52;;;;;;;4.13;3.70;;;16.20;99.90;;;;;;5042410;28;20434;-83
2021/08/31 02:05:18;;;;;;;3.93;3.57;;;16.20;99.90;;;;;;5041672;28;20618;-83
2021/08/31 02:07:43;;;;;;;3.60;3.30;;;16.20;99.90;;;;;;5041748;28;20406;-83
2021/08/31 02:10:10;;;;;;;5.63;4.20;;;16.20;99.90;;;;;;5042343;28;20201;-83
2021/08/31 02:12:35;;;;;;;3.40;3.10;;;16.10;99.90;;;;;;5041790;28;20214;-83
2021/08/31 02:15:02;;;;;;;4.87;3.33;;;16.10;99.90;;;;;;5041182;28;20471;-84
2021/08/31 02:17:28;;;;;;;3.33;3.10;;;16.10;99.90;;;;;;5042161;28;20668;-83
2021/08/31 02:19:54;;;;;;;3.63;3.10;;;16.10;99.90;;;;;;5045098;28;20392;-83
2021/08/31 02:22:19;;;;;;;5.40;3.00;;;16.00;99.90;;;;;;5059000;28;20215;-83
2021/08/31 02:24:45;;;;;;;3.47;3.17;;;16.00;99.90;;;;;;5059232;28;20164;-81
2021/08/31 02:27:11;;;;;;;4.63;3.67;;;15.90;99.90;;;;;;5059057;28;20191;-82
2021/08/31 02:29:38;;;;;;;4.80;4.40;;;15.90;99.90;;;;;;5025445;28;20189;-81
2021/08/31 02:32:05;;;;;;;4.10;3.70;;;15.90;99.90;;;;;;5059216;28;20447;-82
2021/08/31 02:34:32;;;;;;;3.60;3.30;;;15.80;99.90;;;;;;5059260;28;20471;-81
2021/08/31 02:36:57;;;;;;;3.87;3.57;;;15.80;99.90;;;;;;5059315;28;20396;-81
2021/08/31 02:39:23;;;;;;;4.30;3.90;;;15.80;99.90;;;;;;5059329;28;20438;-82
2021/08/31 02:41:49;;;;;;;3.93;3.60;;;15.80;99.90;;;;;;5059180;28;20165;-82
2021/08/31 02:44:15;;;;;;;4.43;3.20;;;15.80;99.90;;;;;;5041839;28;20459;-82
2021/08/31 02:46:41;;;;;;;4.57;4.17;;;15.80;99.90;;;;;;5047683;28;20607;-82
2021/08/31 02:49:07;;;;;;;3.87;3.57;;;15.90;99.90;;;;;;5041722;28;20161;-83
2021/08/31 02:51:33;;;;;;;5.40;4.17;;;15.90;99.90;;;;;;5041451;28;20710;-82
2021/08/31 02:53:58;;;;;;;5.80;4.60;;;15.80;99.90;;;;;;5041119;28;20195;-82
2021/08/31 02:56:24;;;;;;;4.47;4.10;;;15.80;99.90;;;;;;5042014;28;20525;-83
2021/08/31 02:58:50;;;;;;;4.73;4.07;;;15.80;99.90;;;;;;5041302;28;20215;-83
2021/08/31 03:03:53;;;;;;;5.33;4.80;;;15.80;99.90;;;;;;5041542;28;20407;-82
2021/08/31 03:06:23;;;;;;;5.93;4.80;;;15.80;99.90;;;;;;5041667;28;20419;-82
2021/08/31 03:08:49;;;;;;;7.60;3.87;;;15.80;99.90;;;;;;5023428;28;20439;-83
2021/08/31 03:11:15;;;;;;;4.73;4.33;;;15.70;99.90;;;;;;5040809;28;20414;-83
2021/08/31 03:13:40;;;;;;;4.30;3.90;;;15.70;99.90;;;;;;5042618;28;20243;-82
2021/08/31 03:16:06;;;;;;;5.83;4.97;;;15.70;99.90;;;;;;5042852;28;20161;-82
2021/08/31 03:18:32;;;;;;;7.77;4.70;;;15.70;99.90;;;;;;5043057;28;20457;-81
2021/08/31 03:20:58;;;;;;;5.60;4.40;;;15.70;99.90;;;;;;5042996;28;20172;-83
2021/08/31 03:23:24;;;;;;;5.30;4.80;;;15.80;99.90;;;;;;5047145;28;20161;-82
2021/08/31 03:25:50;;;;;;;4.33;3.93;;;15.70;99.90;;;;;;5043365;28;20165;-82
2021/08/31 03:28:15;;;;;;;4.57;4.17;;;15.80;99.90;;;;;;5042320;28;20538;-82
2021/08/31 03:30:41;;;;;;;4.83;4.10;;;15.80;99.90;;;;;;5042614;28;20261;-83
2021/08/31 03:33:07;;;;;;;4.80;4.40;;;15.80;99.90;;;;;;5056719;28;20169;-82
2021/08/31 03:35:33;;;;;;;5.80;5.20;;;15.80;99.90;;;;;;5058278;28;20259;-83
2021/08/31 03:37:58;;;;;;;5.70;4.60;;;15.80;99.90;;;;;;5058304;28;20160;-81
2021/08/31 03:40:24;;;;;;;4.83;4.30;;;15.70;99.90;;;;;;5058454;28;20168;-81
2021/08/31 03:42:50;;;;;;;4.33;4.03;;;15.70;99.90;;;;;;5058327;28;20157;-82
2021/08/31 03:45:16;;;;;;;5.10;4.27;;;15.70;99.90;;;;;;5058447;28;20165;-82
2021/08/31 03:47:42;;;;;;;4.37;4.07;;;15.70;99.90;;;;;;5056774;28;20204;-83
2021/08/31 03:50:08;;;;;;;6.40;4.80;;;15.70;99.90;;;;;;5041017;28;20235;-83
2021/08/31 03:52:34;;;;;;;8.30;4.50;;;15.70;99.90;;;;;;5058198;28;20214;-83
2021/08/31 03:55:00;;;;;;;4.80;4.13;;;15.70;99.90;;;;;;5058101;28;20467;-82
2021/08/31 03:57:26;;;;;;;6.13;4.50;;;15.60;99.90;;;;;;5058152;28;20184;-81
2021/08/31 03:59:52;;;;;;;5.40;4.57;;;15.60;99.90;;;;;;5058098;28;20164;-82
2021/08/31 04:02:18;;;;;;;5.30;4.80;;;15.60;99.90;;;;;;5058069;28;20427;-81
2021/08/31 04:04:44;;;;;;;4.27;3.87;;;15.60;99.90;;;;;;5058188;28;20175;-82
2021/08/31 04:07:11;;;;;;;4.47;4.07;;;15.60;99.90;;;;;;5047202;28;20840;-83
2021/08/31 04:09:36;;;;;;;5.13;4.70;;;15.60;99.90;;;;;;5039868;28;20197;-83
2021/08/31 04:12:02;;;;;;;5.33;4.83;;;15.70;99.90;;;;;;5039705;28;20791;-83
2021/08/31 04:14:28;;;;;;;9.00;5.50;;;15.60;99.90;;;;;;5039335;28;20223;-83
2021/08/31 04:16:54;;;;;;;4.70;4.30;;;15.60;99.90;;;;;;5038858;28;20392;-83
2021/08/31 04:19:20;;;;;;;5.87;5.27;;;15.60;99.90;;;;;;5039261;28;20157;-83
2021/08/31 04:21:45;;;;;;;6.20;5.60;;;15.60;99.90;;;;;;5040403;28;20226;-83
2021/08/31 04:24:11;;;;;;;7.83;4.70;;;15.50;99.90;;;;;;5041976;28;20157;-83
2021/08/31 04:26:37;;;;;;;7.70;5.57;;;15.50;99.90;;;;;;5026511;28;20234;-83
2021/08/31 04:29:03;;;;;;;6.90;5.30;;;15.50;99.90;;;;;;5045057;28;20536;-85
2021/08/31 04:31:28;;;;;;;7.53;5.30;;;15.50;99.90;;;;;;5026040;28;20177;-83
2021/08/31 04:33:54;;;;;;;7.13;5.90;;;15.50;99.90;;;;;;5024275;28;20208;-82
2021/08/31 04:36:20;;;;;;;6.70;5.47;;;15.50;99.90;;;;;;5042491;28;20184;-82
2021/08/31 04:38:46;;;;;;;6.60;5.37;;;15.60;99.90;;;;;;5042891;28;20175;-82
2021/08/31 04:41:11;;;;;;;5.63;5.13;;;15.50;99.90;;;;;;5043310;28;20157;-83
2021/08/31 04:43:37;;;;;;;6.10;5.50;;;15.50;99.90;;;;;;5043002;28;20241;-82
2021/08/31 04:46:03;;;;;;;5.90;5.30;;;15.50;99.90;;;;;;5054990;28;20164;-81
2021/08/31 04:48:29;;;;;;;8.10;5.50;;;15.50;99.90;;;;;;5054796;28;20168;-83
2021/08/31 04:50:55;;;;;;;6.40;4.97;;;15.50;99.90;;;;;;5043022;28;20403;-83
2021/08/31 04:53:22;;;;;;;6.73;5.87;;;15.50;99.90;;;;;;5043367;28;20407;-83
2021/08/31 04:55:48;;;;;;;8.53;5.67;;;15.50;99.90;;;;;;5042991;28;20165;-83
2021/08/31 04:58:14;;;;;;;6.33;5.70;;;15.50;99.90;;;;;;5042325;28;20396;-83
2021/08/31 05:00:42;;;;;;;14.03;6.50;;;15.60;99.90;;;;;;5042174;28;20449;-83
2021/08/31 05:03:07;;;;;;;10.53;7.20;;;15.50;99.90;;;;;;5042095;28;20693;-83
2021/08/31 05:05:33;;;;;;;7.23;6.10;;;15.60;99.90;;;;;;5042181;28;20423;-83
2021/08/31 05:07:59;;;;;;;6.97;6.23;;;15.60;99.90;;;;;;4991116;28;20533;-82
2021/08/31 05:10:25;;;;;;;7.27;6.53;;;15.60;99.90;;;;;;5024926;28;20176;-83
2021/08/31 05:12:51;;;;;;;7.57;5.90;;;15.60;99.90;;;;;;5043604;28;20560;-83
2021/08/31 05:15:16;;;;;;;7.30;6.27;;;15.60;99.90;;;;;;5043501;28;20650;-82
2021/08/31 05:17:43;;;;;;;8.30;6.30;;;15.60;99.90;;;;;;5041987;28;20161;-83
2021/08/31 05:20:09;;;;;;;13.77;6.20;;;15.60;99.90;;;;;;5041914;28;20218;-82
2021/08/31 05:22:35;;;;;;;9.83;6.30;;;15.60;99.90;;;;;;5041790;28;20404;-82
2021/08/31 05:25:04;;;;;;;7.87;5.80;;;15.60;99.90;;;;;;5041445;28;20450;-82
2021/08/31 05:27:30;;;;;;;7.33;6.13;;;15.60;99.90;;;;;;5041966;28;20502;-82
2021/08/31 05:29:56;;;;;;;7.80;5.37;;;15.60;99.90;;;;;;5024110;28;20407;-82
2021/08/31 05:32:23;;;;;;;6.80;5.00;;;15.60;99.90;;;;;;5041989;28;20411;-82
2021/08/31 05:34:49;;;;;;;10.70;4.93;;;15.70;99.90;;;;;;5040889;28;20518;-82
2021/08/31 05:37:14;;;;;;;6.13;5.47;;;15.70;99.90;;;;;;5042782;28;20428;-82
2021/08/31 05:39:40;;;;;;;8.60;5.77;;;15.70;99.90;;;;;;5044160;28;20199;-83
2021/08/31 05:42:08;;;;;;;10.10;5.70;;;15.70;99.90;;;;;;5043355;28;20172;-83
2021/08/31 05:44:37;;;;;;;8.90;4.90;;;15.80;99.90;;;;;;5044297;28;20590;-82
2021/08/31 05:47:04;;;;;;;6.23;5.60;;;15.80;99.90;;;;;;5042264;28;20407;-82
2021/08/31 05:49:31;;;;;;;7.07;6.37;;;15.80;99.90;;;;;;5039273;28;20497;-83
2021/08/31 05:51:58;;;;;;;6.67;5.60;;;15.80;99.90;;;;;;5039239;28;20423;-83
2021/08/31 05:54:26;;;;;;;6.70;5.77;;;15.90;99.90;;;;;;5040971;28;20459;-82
2021/08/31 05:56:52;;;;;;;9.30;5.57;;;15.90;99.90;;;;;;5042185;28;20399;-85
2021/08/31 05:59:18;;;;;;;6.20;5.50;;;16.00;99.90;;;;;;5041659;28;20514;-83
2021/08/31 06:01:44;;;;;;;7.90;5.67;;;16.00;99.90;;;;;;5040701;28;20456;-82
2021/08/31 06:04:11;;;;;;;6.07;4.93;;;16.00;99.90;;;;;;5040641;28;20187;-82
2021/08/31 06:06:38;;;;;;;7.70;6.43;;;16.00;99.90;;;;;;5005569;28;20887;-82
2021/08/31 06:09:06;;;;;;;5.63;4.90;;;16.00;99.90;;;;;;5023928;28;20443;-83
2021/08/31 06:11:37;;;;;;;5.90;5.10;;;16.00;99.90;;;;;;5040942;28;20420;-82
2021/08/31 06:14:03;;;;;;;5.00;4.60;;;16.00;99.90;;;;;;5040071;28;20874;-82
2021/08/31 06:16:30;;;;;;;5.97;5.27;;;16.10;99.90;;;;;;5040738;28;20403;-82
2021/08/31 06:18:55;;;;;;;5.50;5.00;;;16.10;99.90;;;;;;5040155;28;20424;-83
2021/08/31 06:21:21;;;;;;;5.70;5.00;;;16.10;99.90;;;;;;5023268;28;20442;-82
2021/08/31 06:23:47;;;;;;;7.43;5.63;;;16.10;99.90;;;;;;5038852;28;20184;-83
2021/08/31 06:26:13;;;;;;;6.00;5.40;;;16.10;99.90;;;;;;5038646;28;20172;-83
2021/08/31 06:28:40;;;;;;;5.80;5.20;;;16.00;99.90;;;;;;5040647;28;20444;-83
2021/08/31 06:31:06;;;;;;;6.07;5.10;;;15.90;99.90;;;;;;5040422;28;20590;-83
2021/08/31 06:33:32;;;;;;;5.70;4.47;;;15.90;99.90;;;;;;5039741;28;20439;-83
2021/08/31 06:35:57;;;;;;;8.10;4.77;;;15.90;99.90;;;;;;5030769;28;20177;-83
2021/08/31 06:38:24;;;;;;;7.30;6.37;;;15.90;99.90;;;;;;5026762;28;20211;-83
2021/08/31 06:40:50;;;;;;;6.83;4.93;;;15.90;99.90;;;;;;5039293;28;20176;-83
2021/08/31 06:43:35;;;;;;;9.30;4.57;;;15.90;99.90;;;;;;5030663;28;20539;-82
2021/08/31 06:46:01;;;;;;;6.30;5.00;;;16.00;99.90;;;;;;5020593;28;20471;-83
2021/08/31 06:48:27;;;;;;;7.77;4.57;;;16.00;99.90;;;;;;5004771;28;20198;-83
2021/08/31 06:50:53;;;;;;;7.93;5.03;;;16.00;99.90;;;;;;5037734;28;20518;-83
2021/08/31 06:53:19;;;;;;;6.57;5.17;;;16.00;99.90;;;;;;5037515;28;20188;-83
2021/08/31 06:55:44;;;;;;;6.27;5.60;;;16.00;99.90;;;;;;5020764;28;20211;-83
2021/08/31 06:58:10;;;;;;;8.57;6.33;;;16.00;99.90;;;;;;5037604;28;20649;-82
2021/08/31 07:00:36;;;;;;;9.37;5.90;;;16.00;99.90;;;;;;5037398;28;20315;-83
2021/08/31 07:03:02;;;;;;;7.40;6.20;;;16.00;99.90;;;;;;5037904;28;20191;-83
2021/08/31 07:05:27;;;;;;;7.40;6.10;;;16.00;99.90;;;;;;5036776;28;20287;-82
2021/08/31 07:07:53;;;;;;;8.23;5.47;;;16.00;99.90;;;;;;5036576;28;20172;-83
2021/08/31 07:10:19;;;;;;;9.20;6.00;;;16.10;99.90;;;;;;5035859;28;20646;-83
2021/08/31 07:12:45;;;;;;;7.40;6.70;;;16.00;99.90;;;;;;5036945;28;20282;-83
2021/08/31 07:15:11;;;;;;;13.13;6.63;;;16.00;99.90;;;;;;5040106;28;20226;-83
2021/08/31 07:17:57;;;;;;;5.80;4.60;;;16.10;99.90;;;;;;5023327;28;20798;-83
2021/08/31 07:20:23;;;;;;;5.27;4.80;;;16.20;99.90;;;;;;4999121;28;20436;-83
2021/08/31 07:22:49;;;;;;;7.63;5.37;;;16.20;99.90;;;;;;4981558;28;20425;-83
2021/08/31 07:25:17;;;;;;;9.83;6.40;;;16.30;99.90;;;;;;4998969;28;20463;-82
2021/08/31 07:27:43;;;;;;;10.43;4.63;;;16.40;99.90;;;;;;4997669;28;20512;-83
2021/08/31 07:30:09;;;;;;;5.87;5.27;;;16.60;99.90;;;;;;4998100;28;20744;-84
2021/08/31 07:32:37;;;;;;;6.43;5.40;;;16.70;99.90;;;;;;5001266;28;20235;-84
2021/08/31 07:35:03;;;;;;;6.50;5.20;;;16.90;99.90;;;;;;4997976;28;20457;-84
2021/08/31 07:37:29;;;;;;;5.80;4.70;;;16.90;99.90;;;;;;4996455;28;20417;-84
2021/08/31 07:40:35;;;;;;;4.63;4.13;;;16.90;99.90;;;;;;4978592;28;20418;-84
2021/08/31 07:43:00;;;;;;;6.40;4.70;;;17.00;99.90;;;;;;4937827;29;20460;-84
2021/08/31 07:45:26;;;;;;;5.97;4.40;;;17.00;99.90;;;;;;4940004;29;20808;-84
2021/08/31 07:47:52;;;;;;;4.80;4.30;;;17.00;99.90;;;;;;4940416;29;20195;-84
2021/08/31 07:50:18;;;;;;;6.43;5.37;;;17.10;99.90;;;;;;4942281;28;20432;-84
2021/08/31 07:52:44;;;;;;;6.47;5.20;;;17.10;99.90;;;;;;4961265;28;20213;-84
2021/08/31 07:55:11;;;;;;;7.23;5.47;;;17.20;99.90;;;;;;4974421;28;20226;-85
2021/08/31 07:57:38;;;;;;;4.80;4.30;;;17.30;99.90;;;;;;4963345;28;20516;-84
2021/08/31 08:00:07;;;;;;;4.87;4.47;;;17.40;99.90;;;;;;4987041;28;20430;-84
2021/08/31 08:02:52;;;;;;;6.87;5.30;;;17.40;99.90;;;;;;4979829;28;20800;-84
2021/08/31 08:05:18;;;;;;;5.73;5.23;;;17.50;99.90;;;;;;4961600;29;20446;-84
2021/08/31 08:07:44;;;;;;;5.83;5.30;;;17.40;99.90;;;;;;4962197;29;20438;-83
2021/08/31 08:10:10;;;;;;;6.10;5.27;;;17.40;99.90;;;;;;4960607;28;20233;-84
2021/08/31 08:12:36;;;;;;;5.20;4.73;;;17.50;99.90;;;;;;4981124;28;20171;-84
2021/08/31 08:15:04;;;;;;;5.17;4.77;;;17.50;99.90;;;;;;4961529;28;20476;-84
2021/08/31 08:17:30;;;;;;;6.37;5.67;;;17.60;99.90;;;;;;4980587;28;20826;-84
2021/08/31 08:19:56;;;;;;;6.27;5.67;;;17.80;99.90;;;;;;4982589;28;20473;-84
2021/08/31 08:22:22;;;;;;;7.00;4.87;;;17.90;99.90;;;;;;4994734;28;20489;-83
2021/08/31 08:24:49;;;;;;;5.70;5.17;;;18.00;99.90;;;;;;4986850;28;20478;-84
2021/08/31 08:27:15;;;;;;;5.70;5.20;;;18.30;99.90;;;;;;4982450;28;20533;-84
2021/08/31 08:29:41;;;;;;;5.03;4.53;;;18.50;99.90;;;;;;4982057;28;20410;-84
2021/08/31 08:32:09;;;;;;;5.30;4.80;;;18.70;99.90;;;;;;4980736;28;20791;-84
2021/08/31 08:34:38;;;;;;;5.67;4.70;;;18.80;99.90;;;;;;4977004;28;20585;-84
2021/08/31 08:37:07;;;;;;;6.87;4.93;;;18.60;99.90;;;;;;5032737;28;20446;-84
2021/08/31 08:39:34;;;;;;;4.93;4.43;;;18.90;99.90;;;;;;5042830;28;20415;-84
2021/08/31 08:42:00;;;;;;;7.53;4.40;;;19.00;99.90;;;;;;5035607;28;20419;-84
2021/08/31 08:44:28;;;;;;;6.70;4.77;;;19.20;99.90;;;;;;5024570;28;20427;-83
2021/08/31 08:46:55;;;;;;;7.70;4.50;;;19.30;99.90;;;;;;5042151;28;20427;-84
2021/08/31 08:49:45;;;;;;;4.77;4.37;;;19.40;99.90;;;;;;5043092;28;20455;-84
2021/08/31 08:52:13;;;;;;;4.87;4.47;;;19.40;99.90;;;;;;4996892;28;20560;-84
2021/08/31 08:54:42;;;;;;;5.20;4.77;;;19.60;99.90;;;;;;4999698;28;20492;-83
2021/08/31 08:57:09;;;;;;;5.07;4.57;;;19.50;99.90;;;;;;4984035;28;20440;-84
2021/08/31 08:59:39;;;;;;;5.03;4.33;;;19.50;99.90;;;;;;4988532;28;20477;-84
2021/08/31 09:02:05;;;;;;;11.33;4.97;;;19.50;99.90;;;;;;4999974;28;20464;-84
2021/08/31 09:04:48;;;;;;;4.83;4.03;;;19.60;99.90;;;;;;4999662;28;20448;-84
2021/08/31 09:07:29;;;;;;;4.43;4.03;;;18.70;99.90;;;;;;5000223;28;20472;-84
2021/08/31 09:10:18;;;;;;;5.00;4.60;;;19.00;99.90;;;;;;5000147;28;20689;-83
2021/08/31 09:12:47;;;;;;;6.50;3.80;;;19.10;99.90;;;;;;5000580;28;20962;-85
2021/08/31 09:15:24;;;;;;;4.67;3.63;;;18.90;99.90;;;;;;4983807;28;20516;-85
2021/08/31 09:18:16;;;;;;;5.43;4.90;;;18.80;99.90;;;;;;5000724;28;20853;-83
2021/08/31 09:21:10;;;;;;;4.83;4.43;;;19.00;99.90;;;;;;4955314;28;20437;-82
2021/08/31 09:23:37;;;;;;;4.90;4.40;;;19.10;99.90;;;;;;4981085;28;20429;-85
2021/08/31 09:26:07;;;;;;;5.10;4.50;;;19.10;99.90;;;;;;4976583;28;20431;-84
2021/08/31 09:28:37;;;;;;;5.53;4.90;;;19.20;99.90;;;;;;4967700;28;20895;-83
2021/08/31 09:31:10;;;;;;;11.60;4.60;;;19.20;99.90;;;;;;4986312;28;20726;-83
2021/08/31 09:33:39;;;;;;;7.80;4.43;;;19.20;99.90;;;;;;4971377;28;20411;-84
2021/08/31 09:36:18;;;;;;;5.03;4.57;;;19.20;99.90;;;;;;4975455;28;20434;-86
2021/08/31 09:39:05;;;;;;;6.47;4.53;;;19.30;99.90;;;;;;4982244;28;20461;-83
2021/08/31 09:41:45;;;;;;;6.00;4.30;;;19.20;99.90;;;;;;4973372;28;20434;-84
2021/08/31 09:44:22;;;;;;;4.90;4.40;;;19.10;99.90;;;;;;4983854;28;20448;-84
2021/08/31 09:46:58;;;;;;;5.63;4.50;;;19.20;99.90;;;;;;4985725;28;20440;-84
2021/08/31 09:49:30;;;;;;;4.77;4.20;;;19.30;99.90;;;;;;4996883;28;20429;-84
2021/08/31 09:52:14;;;;;;;6.10;5.00;;;19.30;99.90;;;;;;4982524;28;20443;-84
2021/08/31 09:54:44;;;;;;;5.10;4.20;;;19.20;99.90;;;;;;4988269;28;20476;-83
2021/08/31 09:57:30;;;;;;;5.57;4.90;;;19.20;99.90;;;;;;4988374;28;20890;-84
2021/08/31 09:59:57;;;;;;;7.70;5.20;;;19.10;99.90;;;;;;5007106;28;20494;-86
2021/08/31 10:02:24;;;;;;;7.13;5.80;;;19.30;99.90;;;;;;4981982;28;20462;-84
2021/08/31 10:04:51;;;;;;;5.03;4.53;;;19.50;99.90;;;;;;4999003;28;20441;-84
2021/08/31 10:07:19;;;;;;;5.03;4.57;;;19.60;99.90;;;;;;5000278;28;20425;-84
2021/08/31 10:09:46;;;;;;;7.43;5.03;;;19.50;99.90;;;;;;4986284;28;20462;-84
2021/08/31 10:12:17;;;;;;;5.80;5.30;;;19.30;99.90;;;;;;5013689;28;20424;-84
2021/08/31 10:14:44;;;;;;;5.20;4.40;;;18.90;99.90;;;;;;5036821;28;20482;-85
2021/08/31 10:17:12;;;;;;;6.17;4.87;;;19.00;99.90;;;;;;5039580;28;20419;-85
2021/08/31 10:19:42;;;;;;;5.30;4.70;;;19.00;99.90;;;;;;5033146;28;20473;-85
2021/08/31 10:22:10;;;;;;;5.30;4.77;;;18.90;99.90;;;;;;5022093;28;20415;-84
2021/08/31 10:24:37;;;;;;;7.13;5.33;;;19.00;99.90;;;;;;5038067;28;20452;-85
2021/08/31 10:27:33;;;;;;;5.30;4.80;;;19.00;99.90;;;;;;5039465;28;20755;-85
2021/08/31 10:30:30;;;;;;;6.47;4.87;;;19.00;99.90;;;;;;5033251;28;20426;-85
2021/08/31 10:32:58;;;;;;;4.60;4.00;;;19.20;99.90;;;;;;5039521;28;20431;-84
2021/08/31 10:35:53;;;;;;;4.80;3.90;;;19.20;99.90;;;;;;5039513;28;20560;-84
2021/08/31 10:38:40;;;;;;;5.07;4.10;;;19.30;99.90;;;;;;5025818;28;20482;-84
2021/08/31 10:41:41;;;;;;;5.93;4.53;;;19.20;99.90;;;;;;5039994;28;20435;-84
2021/08/31 10:44:07;;;;;;;5.97;5.10;;;19.10;99.90;;;;;;5027229;28;20491;-84
2021/08/31 10:47:06;;;;;;;9.77;4.10;;;19.00;99.90;;;;;;5040048;28;20430;-84
2021/08/31 10:49:34;;;;;;;11.03;4.93;;;18.90;99.90;;;;;;5041126;28;20157;-85
2021/08/31 10:52:09;;;;;;;10.83;5.20;;;18.90;99.90;;;;;;5039742;28;20451;-84
2021/08/31 10:54:49;;;;;;;4.97;4.00;;;18.70;99.90;;;;;;5040347;28;20486;-84
2021/08/31 10:57:43;;;;;;;5.17;4.73;;;18.70;99.90;;;;;;5043186;28;20415;-84
2021/08/31 11:00:46;;;;;;;6.90;4.43;;;18.60;99.90;;;;;;5022406;28;20412;-86
2021/08/31 11:03:30;;;;;;;5.57;5.07;;;18.60;99.90;;;;;;5027961;28;20740;-83
2021/08/31 11:06:14;;;;;;;4.97;4.57;;;18.70;99.90;;;;;;5032655;28;20458;-83
2021/08/31 11:08:39;;;;;;;9.30;5.40;;;18.80;99.90;;;;;;5023951;28;20442;-83
2021/08/31 11:11:05;;;;;;;5.50;5.00;;;18.80;99.90;;;;;;5039101;28;20916;-85
2021/08/31 11:13:31;;;;;;;5.40;4.90;;;19.00;99.90;;;;;;5029971;28;20196;-83
2021/08/31 11:16:00;;;;;;;6.60;5.40;;;19.40;99.90;;;;;;5012743;28;20229;-84
2021/08/31 11:18:34;;;;;;;5.23;4.73;;;19.40;99.90;;;;;;4965839;28;20452;-83
2021/08/31 11:20:59;;;;;;;10.23;6.00;;;19.60;99.90;;;;;;4976910;28;20187;-83
2021/08/31 11:23:31;;;;;;;5.60;4.67;;;19.60;99.90;;;;;;4979722;28;20433;-85
2021/08/31 11:26:02;;;;;;;6.73;4.37;;;19.50;99.90;;;;;;4979229;28;20590;-85
2021/08/31 11:28:31;;;;;;;5.93;5.13;;;19.50;99.90;;;;;;4979190;28;20799;-85
2021/08/31 11:31:03;;;;;;;7.43;4.83;;;19.40;99.90;;;;;;4979012;28;20439;-85
2021/08/31 11:33:32;;;;;;;4.67;4.20;;;19.60;99.90;;;;;;4977705;28;20517;-84
2021/08/31 11:36:04;;;;;;;5.23;4.73;;;19.80;99.90;;;;;;4979552;28;20569;-84
2021/08/31 11:38:37;;;;;;;6.93;4.40;;;20.10;99.90;;;;;;4961906;28;20486;-84
2021/08/31 11:41:30;;;;;;;5.33;4.70;;;20.20;99.90;;;;;;4951575;28;20942;-85
2021/08/31 11:44:04;;;;;;;5.37;4.87;;;20.30;99.90;;;;;;4978306;28;20953;-86
2021/08/31 11:46:33;;;;;;;5.17;4.43;;;20.40;99.90;;;;;;4984986;28;20456;-84
2021/08/31 11:49:16;;;;;;;5.10;4.00;;;20.50;99.90;;;;;;4998406;28;20527;-84
2021/08/31 11:51:58;;;;;;;7.70;4.53;;;20.50;99.90;;;;;;4975021;28;20416;-84
2021/08/31 11:54:25;;;;;;;6.00;4.37;;;20.50;99.90;;;;;;5003869;28;20483;-83
2021/08/31 11:56:56;;;;;;;8.73;4.60;;;20.40;99.90;;;;;;5012279;28;20454;-84
2021/08/31 11:59:35;;;;;;;7.03;4.90;;;20.50;99.90;;;;;;4982691;28;20439;-84
2021/08/31 12:02:14;;;;;;;4.93;4.30;;;20.50;99.90;;;;;;5017551;28;20451;-84
2021/08/31 12:04:44;;;;;;;5.83;4.20;;;20.60;99.90;;;;;;5020021;28;20431;-84
2021/08/31 12:07:15;;;;;;;4.73;4.10;;;20.80;99.90;;;;;;5045060;28;20415;-83
2021/08/31 12:09:42;;;;;;;5.60;5.10;;;21.10;99.90;;;;;;5046376;28;20502;-83
2021/08/31 12:12:09;;;;;;;4.60;4.23;;;21.20;99.90;;;;;;5044482;28;20506;-84
2021/08/31 12:14:35;;;;;;;5.20;4.70;;;21.60;99.90;;;;;;5040492;28;20471;-84
2021/08/31 12:17:05;;;;;;;5.30;4.80;;;20.90;99.90;;;;;;5040087;28;20403;-84
2021/08/31 12:19:30;;;;;;;4.93;4.53;;;21.30;99.90;;;;;;5040151;28;20403;-84
2021/08/31 12:22:14;;;;;;;5.37;4.73;;;21.50;99.90;;;;;;5039864;28;20411;-84
2021/08/31 12:24:44;;;;;;;4.53;3.70;;;21.80;99.90;;;;;;5021826;28;20180;-85
2021/08/31 12:27:13;;;;;;;3.80;3.50;;;22.30;99.90;;;;;;5021997;28;20780;-84
2021/08/31 12:29:49;;;;;;;4.80;3.83;;;22.90;99.90;;;;;;5034608;28;20418;-85
2021/08/31 12:32:25;;;;;;;5.77;4.53;;;24.20;99.90;;;;;;5007576;28;20423;-85
2021/08/31 12:34:50;;;;;;;5.33;4.60;;;25.10;99.90;;;;;;5039984;28;20450;-85
2021/08/31 12:37:25;;;;;;;4.90;4.50;;;25.60;99.90;;;;;;5034292;28;20749;-85
2021/08/31 12:40:11;;;;;;;5.10;4.60;;;26.50;99.90;;;;;;5016865;28;20179;-85
2021/08/31 12:42:39;;;;;;;5.53;5.03;;;27.40;99.90;;;;;;5029526;28;20421;-83
2021/08/31 12:45:05;;;;;;;6.60;4.57;;;26.10;99.90;;;;;;5038823;28;20446;-85
2021/08/31 12:47:31;;;;;;;5.03;4.63;;;26.40;99.90;;;;;;5015626;28;20437;-85
2021/08/31 12:50:07;;;;;;;4.20;3.80;;;26.10;99.90;;;;;;5044674;28;20485;-85
2021/08/31 12:52:35;;;;;;;4.77;4.27;;;25.90;99.90;;;;;;5034537;28;20167;-85
2021/08/31 12:55:18;;;;;;;5.40;4.90;;;26.10;99.90;;;;;;5027682;28;20556;-85
2021/08/31 12:57:44;;;;;;;5.23;4.73;;;26.80;99.90;;;;;;5041118;28;20428;-83